createdAt,value
2019-03-16T00:01:57.438Z,6.90
2019-03-16T00:04:23.471Z,6.90
2019-03-16T00:06:51.739Z,7.00
2019-03-16T00:09:20.030Z,7.00
2019-03-16T00:11:48.403Z,7.00
2019-03-16T00:14:16.771Z,7.00
2019-03-16T00:16:45.036Z,7.00
2019-03-16T00:19:13.671Z,7.00
2019-03-16T00:21:41.938Z,7.00
2019-03-16T00:24:10.230Z,6.90
2019-03-16T00:26:38.503Z,6.90
2019-03-16T00:29:07.211Z,6.80
2019-03-16T00:31:35.483Z,6.80
2019-03-16T00:34:03.779Z,6.80
2019-03-16T00:36:32.363Z,6.70
2019-03-16T00:39:00.655Z,6.80
2019-03-16T00:41:29.231Z,6.80
2019-03-16T00:43:57.523Z,6.90
2019-03-16T00:46:26.095Z,6.80
2019-03-16T00:48:54.687Z,6.80
2019-03-16T00:51:22.961Z,6.80
2019-03-16T00:53:51.664Z,6.60
2019-03-16T00:56:19.923Z,7.00
2019-03-16T00:58:48.474Z,7.00
2019-03-16T01:01:16.752Z,7.10
2019-03-16T01:03:45.039Z,7.10
2019-03-16T01:06:13.571Z,7.00
2019-03-16T01:08:42.159Z,7.00
2019-03-16T01:11:10.747Z,7.00
2019-03-16T01:13:39.038Z,7.00
2019-03-16T01:16:07.615Z,7.00
2019-03-16T01:18:36.213Z,7.00
2019-03-16T01:21:04.503Z,7.00
2019-03-16T01:23:33.174Z,6.90
2019-03-16T01:26:01.462Z,6.90
2019-03-16T01:28:29.985Z,6.90
2019-03-16T01:30:58.663Z,6.80
2019-03-16T01:33:26.983Z,6.80
2019-03-16T01:35:55.270Z,6.80
2019-03-16T01:38:23.892Z,6.80
2019-03-16T01:40:52.178Z,7.10
2019-03-16T01:43:20.758Z,6.90
2019-03-16T01:45:49.043Z,6.90
2019-03-16T01:48:17.632Z,6.90
2019-03-16T01:50:46.219Z,6.90
2019-03-16T01:53:14.482Z,7.10
2019-03-16T01:55:43.087Z,7.10
2019-03-16T01:58:30.801Z,7.10
2019-03-16T02:00:59.503Z,7.10
2019-03-16T02:03:27.772Z,7.10
2019-03-16T02:05:56.071Z,7.10
2019-03-16T02:08:25.643Z,7.10
2019-03-16T02:10:53.984Z,7.10
2019-03-16T02:13:22.574Z,7.20
2019-03-16T02:15:50.864Z,7.10
2019-03-16T02:18:19.415Z,7.10
2019-03-16T02:20:48.004Z,7.00
2019-03-16T02:23:16.592Z,7.00
2019-03-16T02:25:44.882Z,7.00
2019-03-16T02:28:13.231Z,7.00
2019-03-16T02:30:41.587Z,6.80
2019-03-16T02:33:13.445Z,6.90
2019-03-16T02:35:39.876Z,6.90
2019-03-16T02:38:08.151Z,6.80
2019-03-16T02:40:36.410Z,6.70
2019-03-16T02:43:04.988Z,6.70
2019-03-16T02:45:33.680Z,6.80
2019-03-16T02:48:02.375Z,6.80
2019-03-16T02:50:31.063Z,6.80
2019-03-16T02:52:59.755Z,6.80
2019-03-16T02:55:28.506Z,6.70
2019-03-16T02:57:57.133Z,6.60
2019-03-16T03:00:25.728Z,6.70
2019-03-16T03:02:54.080Z,6.60
2019-03-16T03:05:22.418Z,6.60
2019-03-16T03:07:50.704Z,6.70
2019-03-16T03:10:18.983Z,6.70
2019-03-16T03:12:47.341Z,6.60
2019-03-16T03:15:15.604Z,6.70
2019-03-16T03:17:43.894Z,6.80
2019-03-16T03:20:12.475Z,6.80
2019-03-16T03:22:41.211Z,6.80
2019-03-16T03:25:09.607Z,6.80
2019-03-16T03:27:38.245Z,6.90
2019-03-16T03:30:10.140Z,6.80
2019-03-16T03:32:38.429Z,6.80
2019-03-16T03:35:08.669Z,6.80
2019-03-16T03:37:37.305Z,6.80
2019-03-16T03:40:08.012Z,6.70
2019-03-16T03:42:36.732Z,6.70
2019-03-16T03:45:07.638Z,6.70
2019-03-16T03:47:36.258Z,6.50
2019-03-16T03:50:07.642Z,6.60
2019-03-16T03:52:36.002Z,6.70
2019-03-16T03:55:06.443Z,6.80
2019-03-16T03:57:35.117Z,6.70
2019-03-16T04:00:05.628Z,6.60
2019-03-16T04:02:33.987Z,6.70
2019-03-16T04:05:02.623Z,6.60
2019-03-16T04:07:31.312Z,6.70
2019-03-16T04:09:59.902Z,6.60
2019-03-16T04:12:28.267Z,6.60
2019-03-16T04:14:56.531Z,6.70
2019-03-16T04:17:24.823Z,6.60
2019-03-16T04:19:53.088Z,6.70
2019-03-16T04:22:21.715Z,6.70
2019-03-16T04:24:49.988Z,6.60
2019-03-16T04:27:18.279Z,6.60
2019-03-16T04:29:46.626Z,6.60
2019-03-16T04:32:15.355Z,6.40
2019-03-16T04:34:45.257Z,6.30
2019-03-16T04:37:13.680Z,6.30
2019-03-16T04:39:41.973Z,6.60
2019-03-16T04:42:10.520Z,6.50
2019-03-16T04:44:39.108Z,6.50
2019-03-16T04:47:07.377Z,6.40
2019-03-16T04:49:35.986Z,6.30
2019-03-16T04:52:04.321Z,6.20
2019-03-16T04:54:33.056Z,6.10
2019-03-16T04:57:01.580Z,6.10
2019-03-16T04:59:29.947Z,6.10
2019-03-16T05:01:58.508Z,5.70
2019-03-16T05:04:26.795Z,5.60
2019-03-16T05:06:55.382Z,5.60
2019-03-16T05:09:23.968Z,5.80
2019-03-16T05:11:52.240Z,5.70
2019-03-16T05:14:20.688Z,5.90
2019-03-16T05:16:49.042Z,5.90
2019-03-16T05:19:17.331Z,5.90
2019-03-16T05:21:45.883Z,5.80
2019-03-16T05:24:14.171Z,5.90
2019-03-16T05:26:42.750Z,5.70
2019-03-16T05:29:11.042Z,5.40
2019-03-16T05:31:39.388Z,5.50
2019-03-16T05:34:07.674Z,5.60
2019-03-16T05:36:35.973Z,5.40
2019-03-16T05:39:06.835Z,5.30
2019-03-16T05:41:35.099Z,5.40
2019-03-16T05:44:03.400Z,5.50
2019-03-16T05:46:31.739Z,5.40
2019-03-16T05:49:00.098Z,5.20
2019-03-16T05:51:28.363Z,5.30
2019-03-16T05:53:56.651Z,5.40
2019-03-16T05:56:24.915Z,5.10
2019-03-16T05:58:53.583Z,5.20
2019-03-16T06:01:21.847Z,5.10
2019-03-16T06:03:50.451Z,5.10
2019-03-16T06:06:19.032Z,5.20
2019-03-16T06:08:47.329Z,5.30
2019-03-16T06:11:15.591Z,5.20
2019-03-16T06:13:43.879Z,5.20
2019-03-16T06:16:12.160Z,5.20
2019-03-16T06:18:40.743Z,5.10
2019-03-16T06:21:09.006Z,5.20
2019-03-16T06:23:37.623Z,5.40
2019-03-16T06:26:06.206Z,5.40
2019-03-16T06:28:34.543Z,5.40
2019-03-16T06:31:02.827Z,5.50
2019-03-16T06:33:31.107Z,5.60
2019-03-16T06:35:59.741Z,5.80
2019-03-16T06:38:28.369Z,5.80
2019-03-16T06:40:57.019Z,5.70
2019-03-16T06:43:25.607Z,5.50
2019-03-16T06:45:54.200Z,5.70
2019-03-16T06:48:22.784Z,5.80
2019-03-16T06:50:51.372Z,6.10
2019-03-16T06:53:19.747Z,6.10
2019-03-16T06:55:48.443Z,6.10
2019-03-16T06:58:17.027Z,6.20
2019-03-16T07:00:45.317Z,6.30
2019-03-16T07:03:13.895Z,6.10
2019-03-16T07:05:42.184Z,6.00
2019-03-16T07:08:10.767Z,6.30
2019-03-16T07:10:39.057Z,6.30
2019-03-16T07:13:07.316Z,6.30
2019-03-16T07:15:35.933Z,6.30
2019-03-16T07:18:04.267Z,6.40
2019-03-16T07:20:32.893Z,6.30
2019-03-16T07:23:01.475Z,6.40
2019-03-16T07:25:29.766Z,6.30
2019-03-16T07:27:58.352Z,6.40
2019-03-16T07:30:26.631Z,6.40
2019-03-16T07:32:55.155Z,6.40
2019-03-16T07:35:23.461Z,6.40
2019-03-16T07:37:52.086Z,6.20
2019-03-16T07:40:20.373Z,6.10
2019-03-16T07:42:48.952Z,6.10
2019-03-16T07:45:17.251Z,6.20
2019-03-16T07:47:45.832Z,6.60
2019-03-16T07:50:14.187Z,6.70
2019-03-16T07:52:42.452Z,6.80
2019-03-16T07:55:10.741Z,6.80
2019-03-16T07:57:40.748Z,6.80
2019-03-16T08:00:11.404Z,6.70
2019-03-16T08:02:40.095Z,6.30
2019-03-16T08:05:18.121Z,6.50
2019-03-16T08:07:38.931Z,6.30
2019-03-16T08:10:10.675Z,6.50
2019-03-16T08:12:38.951Z,6.70
2019-03-16T08:15:08.847Z,6.60
2019-03-16T08:17:37.174Z,6.70
2019-03-16T08:20:06.966Z,6.80
2019-03-16T08:22:35.581Z,7.00
2019-03-16T08:25:03.860Z,6.70
2019-03-16T08:27:32.450Z,6.80
2019-03-16T08:30:00.741Z,6.90
2019-03-16T08:32:29.012Z,7.20
2019-03-16T08:35:00.246Z,7.40
2019-03-16T08:37:29.588Z,7.80
2019-03-16T08:39:57.367Z,7.90
2019-03-16T08:42:25.631Z,7.90
2019-03-16T08:44:53.914Z,7.70
2019-03-16T08:47:22.179Z,7.50
2019-03-16T08:49:50.470Z,7.50
2019-03-16T08:52:18.731Z,7.70
2019-03-16T08:54:46.994Z,7.70
2019-03-16T08:57:15.279Z,7.60
2019-03-16T08:59:43.887Z,7.60
2019-03-16T09:02:12.174Z,7.60
2019-03-16T09:04:40.752Z,7.60
2019-03-16T09:07:09.039Z,7.60
2019-03-16T09:09:37.305Z,7.40
2019-03-16T09:12:05.586Z,7.60
2019-03-16T09:14:34.188Z,7.60
2019-03-16T09:17:02.477Z,7.40
2019-03-16T09:19:30.819Z,7.50
2019-03-16T09:21:59.110Z,7.40
2019-03-16T09:24:27.823Z,7.60
2019-03-16T09:26:56.117Z,7.90
2019-03-16T09:29:24.455Z,8.00
2019-03-16T09:31:53.175Z,7.90
2019-03-16T09:34:21.438Z,8.10
2019-03-16T09:36:49.798Z,8.20
2019-03-16T09:39:18.135Z,8.20
2019-03-16T09:41:46.707Z,8.20
2019-03-16T09:44:15.299Z,8.10
2019-03-16T09:46:43.640Z,8.10
2019-03-16T09:49:12.272Z,8.00
2019-03-16T09:51:40.563Z,8.10
2019-03-16T09:54:08.822Z,8.20
2019-03-16T09:56:37.418Z,8.00
2019-03-16T09:59:06.107Z,8.10
2019-03-16T10:01:34.413Z,8.20
2019-03-16T10:04:02.739Z,8.40
2019-03-16T10:06:31.032Z,8.60
2019-03-16T10:08:59.295Z,8.60
2019-03-16T10:11:27.932Z,8.70
2019-03-16T10:13:56.515Z,8.70
2019-03-16T10:16:25.103Z,8.40
2019-03-16T10:18:53.375Z,8.50
2019-03-16T10:21:21.972Z,8.80
2019-03-16T10:23:50.559Z,8.90
2019-03-16T10:26:18.896Z,8.90
2019-03-16T10:28:47.531Z,9.00
2019-03-16T10:31:16.122Z,9.10
2019-03-16T10:33:44.707Z,9.10
2019-03-16T10:36:13.294Z,9.00
2019-03-16T10:38:41.988Z,9.10
2019-03-16T10:41:10.576Z,9.10
2019-03-16T10:43:39.164Z,9.30
2019-03-16T10:46:08.586Z,9.40
2019-03-16T10:48:37.099Z,9.30
2019-03-16T10:51:05.426Z,9.30
2019-03-16T10:53:34.018Z,9.40
2019-03-16T10:56:02.617Z,9.40
2019-03-16T10:58:31.204Z,9.50
2019-03-16T11:00:59.792Z,9.50
2019-03-16T11:03:28.380Z,9.50
2019-03-16T11:05:56.967Z,9.60
2019-03-16T11:08:25.255Z,9.60
2019-03-16T11:10:53.527Z,9.70
2019-03-16T11:13:21.819Z,10.00
2019-03-16T11:15:50.091Z,10.10
2019-03-16T11:18:18.778Z,9.90
2019-03-16T11:20:47.043Z,9.80
2019-03-16T11:23:15.650Z,9.90
2019-03-16T11:25:43.984Z,9.90
2019-03-16T11:28:12.628Z,9.70
2019-03-16T11:30:40.887Z,9.80
2019-03-16T11:33:09.543Z,9.90
2019-03-16T11:35:38.079Z,9.90
2019-03-16T11:38:26.111Z,10.00
2019-03-16T11:40:54.383Z,10.30
2019-03-16T11:43:22.975Z,10.10
2019-03-16T11:45:51.242Z,10.10
2019-03-16T11:48:21.073Z,10.20
2019-03-16T11:50:49.342Z,10.30
2019-03-16T11:53:17.953Z,10.20
2019-03-16T11:55:46.536Z,10.30
2019-03-16T11:58:14.827Z,10.30
2019-03-16T12:00:43.099Z,10.90
2019-03-16T12:03:11.387Z,10.80
2019-03-16T12:05:39.971Z,11.10
2019-03-16T12:08:08.555Z,11.00
2019-03-16T12:10:37.102Z,10.90
2019-03-16T12:13:16.814Z,10.60
2019-03-16T12:15:35.387Z,10.50
2019-03-16T12:18:03.651Z,10.40
2019-03-16T12:20:31.938Z,10.40
2019-03-16T12:23:00.487Z,10.40
2019-03-16T12:25:29.080Z,10.40
2019-03-16T12:27:57.674Z,10.30
2019-03-16T12:30:26.255Z,10.40
2019-03-16T12:32:54.527Z,10.40
2019-03-16T12:35:23.223Z,10.40
2019-03-16T12:37:51.495Z,10.40
2019-03-16T12:40:19.795Z,10.60
2019-03-16T12:42:48.063Z,10.60
2019-03-16T12:45:20.563Z,10.70
2019-03-16T12:47:48.931Z,10.70
2019-03-16T12:50:17.219Z,10.60
2019-03-16T12:52:45.904Z,10.40
2019-03-16T12:55:14.191Z,10.40
2019-03-16T12:57:42.475Z,10.40
2019-03-16T13:00:18.111Z,10.30
2019-03-16T13:02:46.531Z,10.30
2019-03-16T13:05:14.811Z,10.30
2019-03-16T13:07:44.462Z,10.40
2019-03-16T13:10:16.428Z,10.40
2019-03-16T13:12:44.890Z,10.50
2019-03-16T13:15:13.232Z,10.50
2019-03-16T13:17:41.814Z,10.90
2019-03-16T13:20:12.351Z,11.00
2019-03-16T13:22:41.035Z,11.10
2019-03-16T13:25:10.538Z,11.00
2019-03-16T13:27:38.828Z,11.00
2019-03-16T13:30:12.838Z,10.90
2019-03-16T13:32:41.427Z,11.10
2019-03-16T13:35:10.017Z,11.10
2019-03-16T13:37:38.704Z,11.00
2019-03-16T13:40:09.995Z,10.90
2019-03-16T13:42:38.544Z,11.00
2019-03-16T13:45:08.779Z,10.80
2019-03-16T13:47:37.360Z,10.80
2019-03-16T13:50:19.470Z,10.70
2019-03-16T13:52:48.557Z,10.70
2019-03-16T13:55:17.244Z,10.60
2019-03-16T13:57:46.956Z,10.60
2019-03-16T14:00:19.610Z,10.70
2019-03-16T14:02:47.936Z,10.80
2019-03-16T14:05:16.222Z,11.00
2019-03-16T14:07:44.976Z,10.90
2019-03-16T14:10:22.239Z,10.90
2019-03-16T14:12:50.585Z,10.80
2019-03-16T14:15:19.255Z,10.70
2019-03-16T14:17:48.831Z,10.60
2019-03-16T14:20:17.395Z,10.50
2019-03-16T14:22:45.934Z,10.50
2019-03-16T14:25:14.628Z,10.50
2019-03-16T14:27:43.312Z,10.50
2019-03-16T14:30:39.429Z,10.50
2019-03-16T14:32:49.907Z,10.60
2019-03-16T14:35:18.271Z,10.50
2019-03-16T14:37:48.210Z,10.50
2019-03-16T14:40:16.905Z,10.40
2019-03-16T14:42:45.591Z,10.40
2019-03-16T14:45:16.427Z,10.40
2019-03-16T14:47:44.781Z,10.30
2019-03-16T14:50:20.864Z,10.30
2019-03-16T14:52:49.277Z,10.30
2019-03-16T14:55:17.943Z,10.30
2019-03-16T14:57:47.231Z,10.50
2019-03-16T15:00:16.716Z,10.60
2019-03-16T15:02:46.444Z,10.60
2019-03-16T15:05:15.122Z,10.60
2019-03-16T15:07:43.751Z,10.60
2019-03-16T15:10:14.798Z,10.60
2019-03-16T15:12:43.097Z,10.60
2019-03-16T15:15:16.872Z,10.60
2019-03-16T15:17:46.279Z,10.60
2019-03-16T15:20:15.290Z,10.40
2019-03-16T15:22:43.839Z,10.40
2019-03-16T15:25:13.230Z,10.40
2019-03-16T15:27:41.980Z,10.30
2019-03-16T15:30:15.279Z,10.30
2019-03-16T15:32:44.060Z,10.20
2019-03-16T15:35:12.685Z,10.30
2019-03-16T15:37:41.545Z,10.30
2019-03-16T15:40:12.488Z,10.40
2019-03-16T15:42:41.270Z,10.40
2019-03-16T15:45:24.812Z,10.40
2019-03-16T15:47:54.288Z,10.20
2019-03-16T15:50:23.107Z,10.30
2019-03-16T15:52:51.897Z,10.30
2019-03-16T15:55:20.696Z,10.20
2019-03-16T15:57:49.495Z,10.20
2019-03-16T16:00:19.304Z,10.20
2019-03-16T16:02:47.776Z,10.30
2019-03-16T16:05:16.584Z,10.20
2019-03-16T16:07:45.130Z,10.20
2019-03-16T16:10:17.705Z,10.20
2019-03-16T16:12:46.290Z,10.20
2019-03-16T16:15:15.435Z,10.20
2019-03-16T16:17:43.906Z,10.20
2019-03-16T16:20:16.428Z,10.20
2019-03-16T16:22:44.976Z,10.20
2019-03-16T16:25:14.164Z,10.20
2019-03-16T16:27:42.720Z,10.20
2019-03-16T16:30:16.255Z,10.20
2019-03-16T16:32:45.070Z,10.20
2019-03-16T16:35:14.663Z,10.20
2019-03-16T16:37:44.498Z,10.10
2019-03-16T16:40:22.319Z,10.10
2019-03-16T16:42:50.802Z,10.10
2019-03-16T16:45:19.675Z,10.00
2019-03-16T16:47:49.357Z,10.00
2019-03-16T16:50:25.251Z,10.00
2019-03-16T16:52:53.895Z,10.00
2019-03-16T16:55:22.731Z,10.00
2019-03-16T16:57:52.506Z,9.90
2019-03-16T17:00:27.930Z,9.90
2019-03-16T17:02:56.475Z,10.00
2019-03-16T17:05:25.269Z,9.90
2019-03-16T17:07:53.814Z,9.90
2019-03-16T17:10:22.651Z,9.90
2019-03-16T17:12:51.436Z,9.90
2019-03-16T17:15:22.291Z,9.80
2019-03-16T17:17:51.069Z,9.80
2019-03-16T17:20:19.518Z,9.80
2019-03-16T17:22:47.991Z,9.80
2019-03-16T17:25:16.940Z,9.80
2019-03-16T17:27:45.737Z,9.80
2019-03-16T17:30:31.632Z,9.80
2019-03-16T17:33:00.104Z,9.70
2019-03-16T17:35:28.890Z,9.70
2019-03-16T17:37:58.813Z,9.70
2019-03-16T17:40:27.340Z,9.70
2019-03-16T17:42:56.187Z,9.70
2019-03-16T17:45:24.640Z,9.60
2019-03-16T17:47:53.111Z,9.60
2019-03-16T17:50:21.851Z,9.60
2019-03-16T17:52:50.322Z,9.60
2019-03-16T17:55:19.432Z,9.70
2019-03-16T17:57:48.238Z,9.70
2019-03-16T18:00:19.971Z,9.60
2019-03-16T18:02:52.639Z,9.50
2019-03-16T18:05:18.974Z,9.60
2019-03-16T18:07:47.434Z,9.50
2019-03-16T18:10:16.595Z,9.40
2019-03-16T18:12:45.049Z,9.50
2019-03-16T18:15:18.290Z,9.60
2019-03-16T18:17:46.896Z,9.50
2019-03-16T18:20:17.636Z,9.50
2019-03-16T18:22:47.367Z,9.60
2019-03-16T18:25:16.541Z,9.50
2019-03-16T18:27:45.413Z,9.50
2019-03-16T18:30:24.231Z,9.50
2019-03-16T18:32:52.679Z,9.50
2019-03-16T18:35:21.720Z,9.40
2019-03-16T18:37:51.839Z,9.40
2019-03-16T18:40:20.314Z,9.40
2019-03-16T18:42:48.762Z,9.50
2019-03-16T18:45:26.154Z,9.50
2019-03-16T18:47:55.846Z,9.40
2019-03-16T18:50:24.606Z,9.50
2019-03-16T18:52:53.396Z,9.50
2019-03-16T18:55:22.292Z,9.40
2019-03-16T18:57:50.833Z,9.30
2019-03-16T19:00:19.980Z,9.40
2019-03-16T19:02:48.771Z,9.40
2019-03-16T19:05:17.245Z,9.40
2019-03-16T19:07:45.706Z,9.40
2019-03-16T19:10:33.591Z,9.40
2019-03-16T19:13:02.055Z,9.40
2019-03-16T19:15:30.951Z,9.40
2019-03-16T19:17:59.603Z,9.40
2019-03-16T19:20:29.621Z,9.40
2019-03-16T19:22:58.129Z,9.40
2019-03-16T19:25:26.726Z,9.40
2019-03-16T19:27:55.171Z,9.50
2019-03-16T19:30:24.122Z,9.60
2019-03-16T19:32:53.011Z,9.40
2019-03-16T19:35:21.803Z,9.40
2019-03-16T19:37:50.594Z,9.30
2019-03-16T19:40:21.431Z,9.30
2019-03-16T19:42:49.884Z,9.10
2019-03-16T19:45:18.443Z,9.20
2019-03-16T19:47:47.303Z,9.10
2019-03-16T19:50:17.017Z,9.20
2019-03-16T19:52:45.815Z,9.30
2019-03-16T19:55:15.113Z,9.20
2019-03-16T19:57:44.009Z,9.30
2019-03-16T20:00:18.027Z,9.30
2019-03-16T20:02:51.098Z,9.20
2019-03-16T20:05:17.281Z,9.30
2019-03-16T20:07:46.141Z,9.20
2019-03-16T20:10:18.260Z,9.10
2019-03-16T20:12:46.953Z,9.00
2019-03-16T20:15:16.061Z,9.20
2019-03-16T20:17:44.507Z,9.20
2019-03-16T20:20:19.995Z,9.30
2019-03-16T20:22:48.439Z,9.30
2019-03-16T20:25:17.305Z,9.20
2019-03-16T20:27:45.759Z,9.00
2019-03-16T20:30:15.367Z,9.20
2019-03-16T20:32:43.882Z,9.10
2019-03-16T20:35:12.787Z,9.20
2019-03-16T20:37:41.242Z,9.10
2019-03-16T20:40:17.582Z,9.10
2019-03-16T20:42:46.327Z,9.10
2019-03-16T20:45:14.902Z,9.20
2019-03-16T20:47:43.528Z,9.20
2019-03-16T20:50:19.973Z,9.10
2019-03-16T20:52:48.431Z,8.90
2019-03-16T20:55:16.903Z,9.00
2019-03-16T20:57:45.464Z,9.10
2019-03-16T21:00:16.934Z,9.00
2019-03-16T21:02:45.435Z,9.00
2019-03-16T21:05:14.131Z,9.00
2019-03-16T21:07:42.952Z,9.00
2019-03-16T21:10:12.542Z,9.20
2019-03-16T21:12:41.459Z,9.20
2019-03-16T21:15:14.970Z,9.10
2019-03-16T21:17:43.415Z,9.00
2019-03-16T21:20:15.416Z,9.10
2019-03-16T21:22:43.960Z,9.20
2019-03-16T21:25:14.203Z,9.20
2019-03-16T21:27:42.679Z,9.20
2019-03-16T21:30:19.382Z,9.20
2019-03-16T21:32:47.940Z,9.10
2019-03-16T21:35:16.483Z,9.00
2019-03-16T21:37:44.955Z,9.20
2019-03-16T21:40:15.223Z,9.00
2019-03-16T21:42:43.702Z,8.80
2019-03-16T21:45:13.376Z,9.10
2019-03-16T21:47:41.923Z,9.20
2019-03-16T21:50:14.582Z,9.30
2019-03-16T21:52:44.882Z,9.10
2019-03-16T21:55:14.518Z,9.20
2019-03-16T21:57:43.387Z,9.20
2019-03-16T22:00:17.249Z,9.20
2019-03-16T22:02:45.738Z,9.10
2019-03-16T22:05:14.661Z,9.20
2019-03-16T22:07:43.206Z,9.10
2019-03-16T22:10:17.156Z,8.90
2019-03-16T22:12:46.062Z,9.10
2019-03-16T22:15:15.621Z,9.00
2019-03-16T22:17:44.159Z,9.20
2019-03-16T22:20:18.071Z,9.10
2019-03-16T22:22:46.960Z,9.10
2019-03-16T22:25:15.500Z,9.20
2019-03-16T22:27:44.434Z,9.10
2019-03-16T22:30:16.920Z,9.10
2019-03-16T22:32:45.806Z,9.00
2019-03-16T22:35:14.257Z,9.10
2019-03-16T22:37:42.730Z,9.00
2019-03-16T22:40:12.415Z,9.10
2019-03-16T22:42:41.188Z,9.00
2019-03-16T22:45:11.632Z,8.90
2019-03-16T22:47:40.103Z,9.00
2019-03-16T22:50:16.877Z,8.90
2019-03-16T22:52:45.599Z,8.80
2019-03-16T22:55:15.859Z,8.80
2019-03-16T22:57:44.587Z,9.00
2019-03-16T23:00:23.890Z,9.10
2019-03-16T23:02:52.363Z,8.90
2019-03-16T23:05:21.195Z,9.00
2019-03-16T23:07:49.987Z,9.00
2019-03-16T23:10:19.920Z,8.90
2019-03-16T23:12:48.809Z,9.20
2019-03-16T23:15:17.327Z,9.10
2019-03-16T23:17:46.085Z,9.00
2019-03-16T23:20:14.770Z,9.00
2019-03-16T23:22:43.242Z,9.10
2019-03-16T23:25:12.047Z,9.10
2019-03-16T23:27:40.530Z,9.10
2019-03-16T23:30:11.281Z,9.00
2019-03-16T23:32:40.262Z,9.00
2019-03-16T23:35:09.248Z,8.90
2019-03-16T23:37:38.160Z,9.00
2019-03-16T23:40:11.152Z,8.90
2019-03-16T23:42:39.700Z,8.90
2019-03-16T23:45:10.255Z,9.00
2019-03-16T23:47:39.069Z,8.80
2019-03-16T23:50:13.178Z,9.00
2019-03-16T23:52:42.072Z,9.00
2019-03-16T23:55:10.967Z,8.90
2019-03-16T23:57:39.434Z,8.90
